PAGINA EN CONSTRUCCIÓN

DISCULPEN POSIBLES FALLOS



Meteosat more information blitzortung!


Radar lluvias  rain snow radar


Visita nuestra red de sitios de meteo:

Documentation for the template used

MeteoibericaRed estaciones Meteorologicas



Sin Advertencias climatologicas .En este momento tenemos Nivel Verde.    No hay Alarmas

Pagina Historial Weather Underground texto

Diario Resumen Febrero 25, 2018 Unidades:  Métrico    impérial   Tanto
« Anterior Dia
Siguiente Dia »
Diario Semana Mensual Anual Personalizada
  Actual: Alto: Baja: Media:
Temperatura: -12.9 °C -17.8 °C -19.6 °C -17.3 °C
Punto de rocío: -19.3 °C -17.8 °C -21.7 °C -20.9 °C
Humedad: 44 % Humidity % 44 % 63 %
Velocidad del Viento: 15 km/h 0 km/h 0 km/h 8.2 km/h
Ráfagas de viento: 15 km/h 0 km/h - -
Viento:SE - - ESE
Pression baro: 34222.3 hPa 0 hPa 34130.9 hPa -
Précipitaciones: 0 mm      
Historical Graphs
 
 
Datos de tabla para Febrero 25, 2018
Tiempo Temperatura Punto de rocío Pression baro Viento Velocidad del Viento Ráfagas de viento Humedad Las precipitaciones Rate ( Hora )
-17.8 °C -17.8 °C 0 hPa Calm     Humidity % 0 mm
00:02 -16.8 °C -21.3 °C 34130.9 hPa NNE 9.8 km/h 9.8 km/h 55 % 0 mm
00:07 -16.7 °C -21.3 °C 34130.9 hPa North 15.6 km/h 15.6 km/h 54 % 0 mm
00:12 -16.6 °C -21.4 °C 34130.9 hPa North 15.6 km/h 15.6 km/h 53 % 0 mm
00:17 -16.6 °C -21.3 °C 34130.9 hPa NNE 15 km/h 15 km/h 54 % 0 mm
00:22 -16.7 °C -21.3 °C 34130.9 hPa North 15 km/h 15 km/h 54 % 0 mm
00:27 -16.6 °C -21.3 °C 34130.9 hPa North 15.6 km/h 15.6 km/h 53 % 0 mm
00:32 -16.6 °C -21.3 °C 34130.9 hPa North 15.6 km/h 15.6 km/h 53 % 0 mm
00:37 -16.3 °C -21.3 °C 34130.9 hPa North 15.6 km/h 15.6 km/h 52 % 0 mm
00:42 -16.3 °C -21.3 °C 34130.9 hPa North 15.6 km/h 15.6 km/h 52 % 0 mm
00:47 -16.6 °C -21.3 °C 34130.9 hPa NE 11.9 km/h 11.9 km/h 54 % 0 mm
00:52 -16.8 °C -21.3 °C 34130.9 hPa NNE 11.9 km/h 11.9 km/h 55 % 0 mm
00:57 -16.7 °C -21.3 °C 34130.9 hPa North 9 km/h 9 km/h 54 % 0 mm
01:02 -16.8 °C -21.2 °C 34144.4 hPa NE 9 km/h 9 km/h 56 % 0 mm
01:07 -17 °C -21.2 °C 34144.4 hPa ENE 9.8 km/h 9.8 km/h 57 % 0 mm
01:12 -17.2 °C -21.3 °C 34130.9 hPa ENE 9 km/h 9 km/h 58 % 0 mm
01:17 -17.6 °C -21.3 °C 34144.4 hPa ENE 9.8 km/h 9.8 km/h 60 % 0 mm
01:22 -17 °C -21.5 °C 34144.4 hPa North 15 km/h 15 km/h 55 % 0 mm
01:27 -16.9 °C -21.5 °C 34144.4 hPa North 9.8 km/h 9.8 km/h 54 % 0 mm
01:32 -16.8 °C -21.4 °C 34144.4 hPa North 9.8 km/h 9.8 km/h 54 % 0 mm
01:37 -16.8 °C -21.3 °C 34144.4 hPa North 9 km/h 9 km/h 55 % 0 mm
01:42 -17.1 °C -21.4 °C 34144.4 hPa North 4.2 km/h 4.2 km/h 56 % 0 mm
01:47 -17.1 °C -21.3 °C 34144.4 hPa North 8 km/h 8 km/h 57 % 0 mm
01:52 -17.2 °C -21.4 °C 34144.4 hPa North 9 km/h 9 km/h 57 % 0 mm
01:57 -17.3 °C -21.4 °C 34144.4 hPa NE 4.2 km/h 4.2 km/h 58 % 0 mm
02:02 -17.3 °C -21.4 °C 34144.4 hPa Calm     58 % 0 mm
02:07 -17.3 °C -21.3 °C 34130.9 hPa West 6 km/h 6 km/h 59 % 0 mm
02:12 -17.3 °C -21.2 °C 34130.9 hPa West 6 km/h 6 km/h 60 % 0 mm
02:17 -17.3 °C -21.2 °C 34130.9 hPa West 3.1 km/h   60 % 0 mm
02:22 -17.4 °C -21.2 °C 34144.4 hPa West 3.1 km/h   61 % 0 mm
02:27 -17.5 °C -21.2 °C 34144.4 hPa North 4.2 km/h 4.2 km/h 61 % 0 mm
02:32 -17.6 °C -21.2 °C 34144.4 hPa North 3.1 km/h   62 % 0 mm
02:37 -17.7 °C -21.1 °C 34144.4 hPa North 5.6 km/h 5.6 km/h 63 % 0 mm
02:42 -18.2 °C -21.4 °C 34130.9 hPa NNE 17.9 km/h 17.9 km/h 65 % 0 mm
02:47 -18.1 °C -21.6 °C 34144.4 hPa North 11.9 km/h 11.9 km/h 63 % 0 mm
02:52 -18.2 °C -21.5 °C 34144.4 hPa East 9 km/h 9 km/h 64 % 0 mm
02:57 -17.9 °C -21.4 °C 34144.4 hPa NW 6 km/h 6 km/h 62 % 0 mm
03:02 -17.9 °C -21.4 °C 34144.4 hPa West 4.2 km/h 4.2 km/h 62 % 0 mm
03:07 -18.2 °C -21.6 °C 34144.4 hPa North 6 km/h 6 km/h 64 % 0 mm
03:09 -18.2 °C -21.6 °C 34144.4 hPa North 11.6 km/h 11.6 km/h 64 % 0 mm
03:14 -18.4 °C -21.5 °C 34144.4 hPa NNE 17.9 km/h 17.9 km/h 66 % 0 mm
03:19 -18.5 °C -21.5 °C 34144.4 hPa NE 15 km/h 15 km/h 67 % 0 mm
03:24 -18.5 °C -21.3 °C 34144.4 hPa NE 9.8 km/h 9.8 km/h 68 % 0 mm
03:29 -18.3 °C -21.6 °C 34144.4 hPa North 20.9 km/h 20.9 km/h 65 % 0 mm
03:34 -18.1 °C -21.3 °C 34144.4 hPa North 17.9 km/h 17.9 km/h 65 % 0 mm
03:39 -17.8 °C -21.3 °C 34144.4 hPa North 15 km/h 15 km/h 62 % 0 mm
03:44 -17.5 °C -21.2 °C 34144.4 hPa NNE 11.6 km/h 11.6 km/h 61 % 0 mm
03:49 -17.6 °C -21.3 °C 34144.4 hPa NNE 14 km/h 14 km/h 61 % 0 mm
03:54 -17.7 °C -21.2 °C 34144.4 hPa NNE 11.9 km/h 11.9 km/h 62 % 0 mm
03:59 -17.8 °C -21.2 °C 34144.4 hPa NNE 9 km/h 9 km/h 63 % 0 mm
04:04 -17.9 °C -21.3 °C 34144.4 hPa North 9 km/h 9 km/h 63 % 0 mm
04:09 -17.8 °C -21.2 °C 34144.4 hPa NNE 11.9 km/h 11.9 km/h 63 % 0 mm
04:14 -17.9 °C -21.3 °C 34144.4 hPa North 9 km/h 9 km/h 63 % 0 mm
04:19 -18.2 °C -21.3 °C 34144.4 hPa North 9 km/h 9 km/h 65 % 0 mm
04:24 -18.3 °C -21.3 °C 34144.4 hPa East 6 km/h 6 km/h 66 % 0 mm
04:29 -18.2 °C -21.3 °C 34144.4 hPa East 4.2 km/h 4.2 km/h 66 % 0 mm
04:34 -18.1 °C -21.1 °C 34144.4 hPa SE 6 km/h 6 km/h 67 % 0 mm
04:39 -18.1 °C -21.1 °C 34144.4 hPa SE 3.1 km/h   67 % 0 mm
04:44 -18.1 °C -21.1 °C 34144.4 hPa SE 3.1 km/h   67 % 0 mm
04:49 -18 °C -21 °C 34154.6 hPa South 6 km/h 6 km/h 67 % 0 mm
04:54 -18 °C -21.1 °C 34154.6 hPa South 9 km/h 9 km/h 66 % 0 mm
04:59 -18.1 °C -21.2 °C 34154.6 hPa South 9 km/h 9 km/h 66 % 0 mm
05:04 -18.1 °C -21.2 °C 34154.6 hPa South 4.2 km/h 4.2 km/h 66 % 0 mm
05:09 -18.3 °C -21.3 °C 34164.7 hPa NW 4.2 km/h 4.2 km/h 66 % 0 mm
05:14 -18.6 °C -21.5 °C 34164.7 hPa NW 4.2 km/h   68 % 0 mm
05:19 -18.6 °C -21.5 °C 34154.6 hPa SW 6 km/h 6 km/h 67 % 0 mm
05:24 -18.6 °C -21.6 °C 34154.6 hPa West 4.2 km/h 4.2 km/h 67 % 0 mm
05:29 -18.6 °C -21.5 °C 34164.7 hPa West 4.2 km/h 4.2 km/h 67 % 0 mm
05:34 -18.6 °C -21.6 °C 34164.7 hPa West 3.1 km/h   67 % 0 mm
05:39 -18.7 °C -21.6 °C 34164.7 hPa NW 3.1 km/h   68 % 0 mm
05:44 -18.9 °C -21.5 °C 34164.7 hPa NE 4.2 km/h 4.2 km/h 70 % 0 mm
05:49 -19.2 °C -21.7 °C 34164.7 hPa North 9 km/h 9 km/h 71 % 0 mm
05:54 -19.2 °C -21.6 °C 34164.7 hPa North 9 km/h 9 km/h 72 % 0 mm
05:59 -19.1 °C -21.6 °C 34164.7 hPa North 9 km/h 9 km/h 71 % 0 mm
06:04 -19.1 °C -21.6 °C 34164.7 hPa North 9.8 km/h 9.8 km/h 71 % 0 mm
06:09 -19.1 °C -21.6 °C 34178.3 hPa North 9.8 km/h 9.8 km/h 72 % 0 mm
06:14 -19 °C -21.6 °C 34178.3 hPa North 6 km/h 6 km/h 71 % 0 mm
06:19 -19 °C -21.6 °C 34178.3 hPa North 9 km/h 9 km/h 71 % 0 mm
06:24 -18.9 °C -21.5 °C 34178.3 hPa North 6 km/h 6 km/h 71 % 0 mm
06:29 -18.7 °C -21.3 °C 34178.3 hPa North 6 km/h 6 km/h 71 % 0 mm
06:34 -18.6 °C -21.3 °C 34178.3 hPa North 4.2 km/h 4.2 km/h 70 % 0 mm
06:39 -18.6 °C -21.3 °C 34178.3 hPa North 3.1 km/h   70 % 0 mm
06:44 -18.7 °C -21.3 °C 34178.3 hPa North 4.2 km/h 4.2 km/h 70 % 0 mm
06:49 -18.7 °C -21.3 °C 34178.3 hPa Calm     70 % 0 mm
06:54 -18.8 °C -21.5 °C 34178.3 hPa Calm     70 % 0 mm
06:59 -18.9 °C -21.3 °C 34178.3 hPa North 3.1 km/h   72 % 0 mm
07:04 -18.8 °C -21.3 °C 34178.3 hPa SE 11.6 km/h 11.6 km/h 72 % 0 mm
07:09 -18.9 °C -21.2 °C 34178.3 hPa NW 4.2 km/h 4.2 km/h 73 % 0 mm
07:14 -19 °C -21.2 °C 34178.3 hPa NW 9 km/h 9 km/h 74 % 0 mm
07:19 -18.9 °C -21.2 °C 34178.3 hPa NW 6 km/h   74 % 0 mm
07:24 -19.2 °C -21.5 °C 34178.3 hPa NW 3.1 km/h   73 % 0 mm
07:29 -19.3 °C -21.4 °C 34178.3 hPa NW 3.1 km/h   75 % 0 mm
07:34 -19.4 °C -21.4 °C 34178.3 hPa Calm     76 % 0 mm
07:39 -19.5 °C -21.4 °C 34188.4 hPa NW 4.2 km/h   77 % 0 mm
07:44 -19.6 °C -21.5 °C 34178.3 hPa Calm     77 % 0 mm
07:49 -19.6 °C -21.5 °C 34188.4 hPa NW 5.6 km/h 5.6 km/h 77 % 0 mm
07:54 -19.6 °C -21.4 °C 34188.4 hPa North 6 km/h 6 km/h 78 % 0 mm
07:59 -19.6 °C -21.5 °C 34188.4 hPa North 9.8 km/h 9.8 km/h 77 % 0 mm
08:04 -19.3 °C -21.4 °C 34198.6 hPa North 11.9 km/h 11.9 km/h 75 % 0 mm
08:09 -19.1 °C -21.3 °C 34198.6 hPa North 9.8 km/h 9.8 km/h 74 % 0 mm
08:14 -18.8 °C -21.2 °C 34198.6 hPa North 6 km/h 6 km/h 73 % 0 mm
08:19 -18.8 °C -21.2 °C 34198.6 hPa North 9.8 km/h 9.8 km/h 72 % 0 mm
08:24 -18.9 °C -21.3 °C 34198.6 hPa North 11.9 km/h 11.9 km/h 73 % 0 mm
08:29 -18.8 °C -21.1 °C 34198.6 hPa North 9 km/h 9 km/h 74 % 0 mm
08:34 -18.7 °C -21.1 °C 34212.1 hPa North 9.8 km/h 9.8 km/h 73 % 0 mm
08:39 -18.6 °C -20.9 °C 34198.6 hPa North 9.8 km/h 9.8 km/h 73 % 0 mm
08:44 -18.3 °C -20.8 °C 34212.1 hPa North 9 km/h 9 km/h 72 % 0 mm
08:49 -18.1 °C -20.7 °C 34212.1 hPa North 5.6 km/h 5.6 km/h 71 % 0 mm
08:54 -17.8 °C -20.6 °C 34212.1 hPa North 6 km/h 6 km/h 69 % 0 mm
08:59 -17.6 °C -20.4 °C 34222.3 hPa East 9.8 km/h 9.8 km/h 69 % 0 mm
09:04 -17.4 °C -20.3 °C 34212.1 hPa SE 4.2 km/h 4.2 km/h 68 % 0 mm
09:09 -17.3 °C -20.3 °C 34222.3 hPa SE 9 km/h 9 km/h 67 % 0 mm
09:14 -17.1 °C -20.2 °C 34222.3 hPa SE 4.2 km/h 4.2 km/h 67 % 0 mm
09:19 -16.9 °C -20.1 °C 34222.3 hPa SE 4.2 km/h   66 % 0 mm
09:24 -16.6 °C -20.1 °C 34222.3 hPa SE 4.2 km/h 4.2 km/h 63 % 0 mm
09:29 -16.4 °C -20.2 °C 34222.3 hPa SE 6 km/h 6 km/h 61 % 0 mm
09:34 -16.5 °C -20.1 °C 34222.3 hPa SE 9 km/h 9 km/h 62 % 0 mm
09:39 -16.5 °C -20.1 °C 34222.3 hPa SE 8 km/h 8 km/h 62 % 0 mm
09:44 -16.5 °C -20.1 °C 34222.3 hPa South 9 km/h 9 km/h 62 % 0 mm
09:49 -16.5 °C -20.1 °C 34222.3 hPa South 6 km/h 6 km/h 63 % 0 mm
09:54 -16.5 °C -20.1 °C 34222.3 hPa South 9 km/h 9 km/h 63 % 0 mm
09:59 -16.4 °C -20.1 °C 34222.3 hPa South 9 km/h 9 km/h 62 % 0 mm
10:04 -16.4 °C -19.8 °C 34222.3 hPa South 9 km/h 9 km/h 64 % 0 mm
10:09 -16.3 °C -19.8 °C 34222.3 hPa South 9 km/h 9 km/h 64 % 0 mm
10:14 -16.1 °C -19.6 °C 34222.3 hPa South 6 km/h 6 km/h 63 % 0 mm
10:19 -15.8 °C -19.6 °C 34222.3 hPa SW 9 km/h 9 km/h 61 % 0 mm
10:24 -15.7 °C -19.6 °C 34222.3 hPa SW 9 km/h 9 km/h 60 % 0 mm
10:29 -15.7 °C -19.5 °C 34222.3 hPa SW 9 km/h 9 km/h 61 % 0 mm
10:34 -15.6 °C -19.7 °C 34222.3 hPa South 11.9 km/h 11.9 km/h 59 % 0 mm
10:39 -15.6 °C -19.7 °C 34222.3 hPa SW 11.9 km/h 11.9 km/h 59 % 0 mm
10:44 -15.3 °C -19.6 °C 34235.8 hPa SW 9.8 km/h 9.8 km/h 57 % 0 mm
10:49 -15.2 °C -19.6 °C 34222.3 hPa South 9 km/h 9 km/h 56 % 0 mm
10:54 -14.9 °C -19.4 °C 34235.8 hPa East 6 km/h 6 km/h 56 % 0 mm
10:59 -14.7 °C -19.4 °C 34235.8 hPa SW 6 km/h   54 % 0 mm
11:04 -14.6 °C -19.4 °C 34235.8 hPa SW 9 km/h   54 % 0 mm
11:09 -14.4 °C -19.5 °C 34235.8 hPa South 8 km/h 8 km/h 52 % 0 mm
11:14 -14.2 °C -19.6 °C 34235.8 hPa South 6 km/h 6 km/h 50 % 0 mm
11:19 -14.1 °C -19.7 °C 34235.8 hPa South 9 km/h 9 km/h 49 % 0 mm
11:24 -14.2 °C -19.6 °C 34235.8 hPa SW 9 km/h 9 km/h 50 % 0 mm
11:29 -13.8 °C -19.4 °C 34235.8 hPa SW 6 km/h 6 km/h 49 % 0 mm
11:34 -13.6 °C -19.3 °C 34235.8 hPa South 9.8 km/h 9.8 km/h 48 % 0 mm
11:39 -13.5 °C -19.2 °C 34235.8 hPa SE 9 km/h 9 km/h 48 % 0 mm
11:44 -13.3 °C -19.3 °C 34222.3 hPa SE 9.8 km/h 9.8 km/h 47 % 0 mm
11:49 -13.2 °C -19.1 °C 34235.8 hPa SE 9 km/h 9 km/h 47 % 0 mm
11:54 -13.1 °C -19 °C 34235.8 hPa South 9 km/h 9 km/h 47 % 0 mm
11:59 -13.1 °C -19.3 °C 34222.3 hPa South 11.9 km/h 11.9 km/h 45 % 0 mm
12:04 -13 °C -19.1 °C 34222.3 hPa SW 15 km/h 15 km/h 46 % 0 mm
12:09 -12.8 °C -19.2 °C 34235.8 hPa SSE 9.8 km/h 9.8 km/h 44 % 0 mm
12:14 -12.9 °C -19.3 °C 34222.3 hPa SE 15 km/h 15 km/h 44 % 0 mm
meteodaganzo
Elogios de Weather Underground - 2.25 mb

Guión original por  Jim McMurry - jmcmurry@mwt.net Adaptado para la plantilla por  Wim van der Kuil - Leuven-Template.eu

Usted encontrará nuestra información del tiempo también en:

WeatherCloud

Weather Underground

Iberian Peninsula Weather Network

AWEKAS

Citizen Weather Observer Program (CWOP)